createdAt,value
2022-10-28T00:01:15.670Z,15.10
2022-10-28T00:03:45.738Z,15.10
2022-10-28T00:06:16.222Z,15.10
2022-10-28T00:08:44.797Z,15.10
2022-10-28T00:11:14.995Z,15.10
2022-10-28T00:13:44.338Z,15.10
2022-10-28T00:16:15.447Z,15.10
2022-10-28T00:18:43.899Z,15.10
2022-10-28T00:21:14.389Z,15.00
2022-10-28T00:23:42.580Z,15.00
2022-10-28T00:26:13.023Z,15.10
2022-10-28T00:28:45.736Z,15.00
2022-10-28T00:31:16.824Z,15.00
2022-10-28T00:33:45.397Z,15.00
2022-10-28T00:36:16.030Z,15.00
2022-10-28T00:38:45.254Z,15.00
2022-10-28T00:41:16.145Z,15.00
2022-10-28T00:43:46.006Z,14.90
2022-10-28T00:46:29.795Z,14.90
2022-10-28T00:49:02.989Z,14.90
2022-10-28T00:51:34.554Z,14.80
2022-10-28T00:54:04.256Z,14.80
2022-10-28T00:56:34.897Z,14.90
2022-10-28T00:59:05.671Z,14.80
2022-10-28T01:01:35.300Z,14.90
2022-10-28T01:04:03.709Z,14.80
2022-10-28T01:06:32.044Z,14.80
2022-10-28T01:09:00.464Z,14.70
2022-10-28T01:11:51.382Z,14.70
2022-10-28T01:14:33.417Z,14.70
2022-10-28T01:17:40.008Z,14.70
2022-10-28T01:20:48.339Z,14.70
2022-10-28T01:23:24.216Z,14.70
2022-10-28T01:26:12.641Z,14.70
2022-10-28T01:29:28.492Z,14.60
2022-10-28T01:32:00.287Z,14.60
2022-10-28T01:34:33.318Z,14.60
2022-10-28T01:37:11.111Z,14.60
2022-10-28T01:39:48.050Z,14.50
2022-10-28T01:42:27.282Z,14.50
2022-10-28T01:45:04.239Z,14.50
2022-10-28T01:47:38.679Z,14.50
2022-10-28T01:50:10.993Z,14.50
2022-10-28T01:52:41.554Z,14.40
2022-10-28T01:55:14.724Z,14.40
2022-10-28T01:57:44.569Z,14.40
2022-10-28T02:00:13.748Z,14.40
2022-10-28T02:02:44.044Z,14.30
2022-10-28T02:05:41.743Z,14.30
2022-10-28T02:08:53.135Z,14.20
2022-10-28T02:11:48.525Z,14.20
2022-10-28T02:14:34.060Z,14.20
2022-10-28T02:17:11.866Z,14.10
2022-10-28T02:19:49.919Z,14.10
2022-10-28T02:22:23.941Z,14.00
2022-10-28T02:25:01.094Z,14.00
2022-10-28T02:27:35.771Z,14.00
2022-10-28T02:30:09.154Z,14.00
2022-10-28T02:32:41.363Z,14.00
2022-10-28T02:35:18.001Z,13.90
2022-10-28T02:37:48.104Z,14.10
2022-10-28T02:40:20.298Z,13.90
2022-10-28T02:42:51.981Z,13.90
2022-10-28T02:45:23.759Z,13.90
2022-10-28T02:47:56.163Z,13.90
2022-10-28T02:50:31.714Z,13.90
2022-10-28T02:53:02.071Z,13.90
2022-10-28T02:55:36.580Z,13.90
2022-10-28T02:58:06.221Z,14.00
2022-10-28T03:00:34.439Z,13.90
2022-10-28T03:03:02.733Z,13.90
2022-10-28T03:05:32.360Z,13.90
2022-10-28T03:08:00.577Z,13.90
2022-10-28T03:10:28.859Z,13.90
2022-10-28T03:12:57.082Z,13.90
2022-10-28T03:15:25.298Z,13.90
2022-10-28T03:17:53.919Z,13.90
2022-10-28T03:20:22.409Z,13.90
2022-10-28T03:22:52.421Z,13.90
2022-10-28T03:25:21.091Z,13.90
2022-10-28T03:27:49.328Z,13.90
2022-10-28T03:30:18.544Z,13.90
2022-10-28T03:32:46.877Z,13.90
2022-10-28T03:35:15.250Z,13.90
2022-10-28T03:40:14.814Z,13.80
2022-10-28T03:42:43.383Z,13.80
2022-10-28T03:45:12.352Z,13.80
2022-10-28T03:47:41.461Z,13.80
2022-10-28T03:50:10.493Z,13.70
2022-10-28T03:52:38.869Z,13.70
2022-10-28T03:55:07.567Z,13.70
2022-10-28T03:57:37.295Z,13.60
2022-10-28T04:00:06.231Z,13.60
2022-10-28T04:02:34.544Z,13.60
2022-10-28T04:05:02.885Z,13.60
2022-10-28T04:07:31.087Z,13.60
2022-10-28T04:09:59.367Z,13.60
2022-10-28T04:12:27.605Z,13.70
2022-10-28T04:14:57.256Z,13.70
2022-10-28T04:17:25.515Z,13.80
2022-10-28T04:19:53.724Z,13.80
2022-10-28T04:22:21.958Z,13.80
2022-10-28T04:24:50.168Z,13.80
2022-10-28T04:27:18.362Z,13.80
2022-10-28T04:29:46.580Z,13.80
2022-10-28T04:32:16.382Z,13.80
2022-10-28T04:34:44.623Z,13.80
2022-10-28T04:37:16.928Z,13.70
2022-10-28T04:39:46.459Z,13.70
2022-10-28T04:42:14.597Z,13.60
2022-10-28T04:44:42.788Z,13.60
2022-10-28T04:47:11.007Z,13.60
2022-10-28T04:49:40.532Z,13.60
2022-10-28T04:52:10.799Z,13.70
2022-10-28T04:54:41.690Z,13.60
2022-10-28T04:57:10.448Z,13.50
2022-10-28T04:59:38.601Z,13.50
2022-10-28T05:02:06.868Z,13.50
2022-10-28T05:04:35.055Z,13.50
2022-10-28T05:07:04.593Z,13.50
2022-10-28T05:09:32.793Z,13.50
2022-10-28T05:12:00.990Z,13.50
2022-10-28T05:14:29.197Z,13.40
2022-10-28T05:16:57.366Z,13.40
2022-10-28T05:19:25.595Z,13.30
2022-10-28T05:21:53.732Z,13.30
2022-10-28T05:24:23.319Z,13.30
2022-10-28T05:26:51.479Z,13.30
2022-10-28T05:29:19.671Z,13.20
2022-10-28T05:31:48.044Z,13.20
2022-10-28T05:34:16.189Z,13.20
2022-10-28T05:36:44.374Z,13.20
2022-10-28T05:39:13.974Z,13.20
2022-10-28T05:41:43.545Z,13.20
2022-10-28T05:44:11.775Z,13.20
2022-10-28T05:46:40.032Z,13.30
2022-10-28T05:49:08.450Z,13.30
2022-10-28T05:51:36.657Z,13.30
2022-10-28T05:54:05.169Z,13.30
2022-10-28T05:56:33.337Z,13.40
2022-10-28T05:59:02.929Z,13.40
2022-10-28T06:01:31.132Z,13.40
2022-10-28T06:03:59.405Z,13.50
2022-10-28T06:06:29.612Z,13.50
2022-10-28T06:08:57.792Z,13.50
2022-10-28T06:11:24.443Z,13.50
2022-10-28T06:13:52.591Z,13.40
2022-10-28T06:16:22.169Z,13.40
2022-10-28T06:18:50.299Z,13.40
2022-10-28T06:21:18.478Z,13.40
2022-10-28T06:23:46.980Z,13.40
2022-10-28T06:26:15.180Z,13.40
2022-10-28T06:28:43.352Z,13.40
2022-10-28T06:31:11.684Z,13.40
2022-10-28T06:33:41.222Z,13.40
2022-10-28T06:36:09.726Z,13.40
2022-10-28T06:38:37.926Z,13.40
2022-10-28T06:41:06.119Z,13.40
2022-10-28T06:43:34.415Z,13.50
2022-10-28T06:46:04.274Z,13.50
2022-10-28T06:48:33.954Z,13.50
2022-10-28T06:51:03.495Z,13.50
2022-10-28T06:53:31.728Z,13.60
2022-10-28T06:56:00.508Z,13.60
2022-10-28T06:58:28.664Z,13.70
2022-10-28T07:00:57.200Z,13.70
2022-10-28T07:03:25.337Z,13.80
2022-10-28T07:05:53.528Z,13.90
2022-10-28T07:08:23.115Z,14.00
2022-10-28T07:10:58.167Z,14.10
2022-10-28T07:13:26.808Z,14.10
2022-10-28T07:15:55.864Z,14.20
2022-10-28T07:18:24.805Z,14.30
2022-10-28T07:20:53.202Z,14.30
2022-10-28T07:23:22.825Z,14.40
2022-10-28T07:25:54.988Z,14.50
2022-10-28T07:28:24.089Z,14.50
2022-10-28T07:30:52.420Z,14.60
2022-10-28T07:33:20.776Z,14.70
2022-10-28T07:35:48.932Z,14.70
2022-10-28T07:38:17.186Z,14.80
2022-10-28T07:40:46.803Z,14.90
2022-10-28T07:43:15.095Z,14.90
2022-10-28T07:45:43.360Z,15.00
2022-10-28T07:48:11.627Z,15.00
2022-10-28T07:50:41.758Z,15.00
2022-10-28T07:53:10.005Z,15.10
2022-10-28T07:55:38.204Z,15.10
2022-10-28T07:58:07.762Z,15.20
2022-10-28T08:00:37.122Z,15.20
2022-10-28T08:03:05.395Z,15.20
2022-10-28T08:05:33.585Z,15.30
2022-10-28T08:08:01.732Z,15.30
2022-10-28T08:10:29.885Z,15.40
2022-10-28T08:12:58.953Z,15.40
2022-10-28T08:15:29.796Z,15.50
2022-10-28T08:17:58.368Z,15.50
2022-10-28T08:20:26.575Z,15.50
2022-10-28T08:22:56.509Z,15.60
2022-10-28T08:25:24.941Z,15.70
2022-10-28T08:27:53.090Z,15.70
2022-10-28T08:30:21.340Z,15.70
2022-10-28T08:32:51.167Z,15.80
2022-10-28T08:35:19.516Z,15.90
2022-10-28T08:37:53.039Z,15.90
2022-10-28T08:40:25.020Z,16.00
2022-10-28T08:43:03.603Z,16.00
2022-10-28T08:45:44.545Z,16.10
2022-10-28T08:48:23.990Z,16.20
2022-10-28T08:50:55.671Z,16.30
2022-10-28T08:53:29.237Z,16.30
2022-10-28T08:56:06.711Z,16.40
2022-10-28T08:58:39.988Z,16.40
2022-10-28T09:01:17.791Z,16.50
2022-10-28T09:03:51.285Z,16.60
2022-10-28T09:06:19.478Z,16.70
2022-10-28T09:08:51.030Z,16.70
2022-10-28T09:11:54.677Z,16.80
2022-10-28T09:14:43.602Z,16.80
2022-10-28T09:17:18.283Z,16.90
2022-10-28T09:19:50.412Z,17.00
2022-10-28T09:22:24.442Z,17.10
2022-10-28T09:24:56.036Z,17.10
2022-10-28T09:27:41.503Z,17.20
2022-10-28T09:30:23.936Z,17.40
2022-10-28T09:33:00.443Z,17.30
2022-10-28T09:35:34.900Z,17.40
2022-10-28T09:38:13.384Z,17.50
2022-10-28T09:40:45.093Z,17.50
2022-10-28T09:43:23.036Z,17.60
2022-10-28T09:45:54.412Z,17.70
2022-10-28T09:48:26.846Z,17.70
2022-10-28T09:50:58.695Z,17.70
2022-10-28T09:53:37.704Z,17.80
2022-10-28T09:58:36.182Z,18.00
2022-10-28T10:01:05.929Z,18.00
2022-10-28T10:03:34.562Z,18.10
2022-10-28T10:06:13.430Z,18.10
2022-10-28T10:08:42.773Z,18.20
2022-10-28T10:11:27.356Z,18.30
2022-10-28T10:44:45.229Z,18.50
2022-10-28T10:47:22.734Z,19.00
2022-10-28T10:49:52.211Z,19.00
2022-10-28T15:50:23.764Z,19.00
2022-10-28T15:52:54.284Z,18.80
2022-10-28T15:55:35.967Z,18.70
2022-10-28T15:58:34.371Z,18.70
2022-10-28T16:01:05.246Z,18.70
2022-10-28T16:03:44.052Z,18.70
2022-10-28T16:06:26.984Z,18.60
2022-10-28T16:09:03.929Z,18.60
2022-10-28T16:11:35.817Z,18.60
2022-10-28T16:14:14.862Z,18.60
2022-10-28T16:16:45.358Z,18.60
2022-10-28T16:19:26.630Z,18.50
2022-10-28T16:21:54.805Z,18.50
2022-10-28T16:24:22.942Z,18.50
2022-10-28T21:47:59.808Z,16.50
2022-10-28T21:50:28.019Z,16.00
2022-10-28T21:55:45.716Z,16.10
2022-10-28T21:58:14.725Z,15.90
2022-10-28T22:00:43.247Z,16.10
2022-10-28T22:03:12.785Z,16.00
2022-10-28T22:05:40.942Z,16.00
2022-10-28T22:08:09.242Z,16.00
2022-10-28T22:10:38.802Z,15.90
2022-10-28T22:13:06.981Z,16.00
2022-10-28T22:15:35.212Z,15.80
2022-10-28T22:18:03.414Z,15.90
2022-10-28T22:20:31.712Z,15.90
2022-10-28T22:22:59.889Z,15.80
2022-10-28T22:25:28.088Z,15.80
2022-10-28T22:27:57.627Z,15.80
2022-10-28T22:30:25.957Z,15.80
2022-10-28T22:32:54.382Z,15.70
2022-10-28T22:35:22.797Z,15.70
2022-10-28T22:37:50.971Z,15.70
2022-10-28T22:40:19.128Z,15.70
2022-10-28T22:42:47.318Z,15.70
2022-10-28T22:45:17.322Z,15.80
2022-10-28T22:47:45.556Z,15.80
2022-10-28T22:50:14.005Z,15.80
2022-10-28T22:52:42.186Z,15.70
2022-10-28T22:55:11.085Z,15.70
2022-10-28T22:57:39.374Z,15.70
2022-10-28T23:00:08.980Z,15.70
2022-10-28T23:02:38.688Z,15.60
2022-10-28T23:05:08.038Z,15.60
2022-10-28T23:07:36.205Z,15.60
2022-10-28T23:10:04.584Z,15.50
2022-10-28T23:12:32.749Z,15.50
2022-10-28T23:15:01.043Z,15.50
2022-10-28T23:17:29.198Z,15.40
2022-10-28T23:19:58.758Z,15.40
2022-10-28T23:22:26.902Z,15.40
2022-10-28T23:24:55.043Z,15.30
2022-10-28T23:27:23.240Z,15.30
2022-10-28T23:29:51.450Z,15.30
2022-10-28T23:32:20.001Z,15.30
2022-10-28T23:34:48.152Z,15.20
2022-10-28T23:37:17.764Z,15.20
2022-10-28T23:39:45.920Z,15.20
2022-10-28T23:42:14.100Z,15.20
2022-10-28T23:44:42.247Z,15.20
2022-10-28T23:47:10.598Z,15.20
2022-10-28T23:49:38.917Z,15.20
2022-10-28T23:52:07.139Z,15.20
2022-10-28T23:54:37.165Z,15.20
2022-10-28T23:57:05.495Z,15.20
2022-10-28T23:59:33.695Z,15.30
